Carpenter, South Dakota
Current Conditions -  °F | °C
As of 1:55 PM on Sunday 23 Nov 2014 (Local Time) from KHON Reporting Station
Overcast Overcast  
Wind Chill: 31°   Ceiling: 3600
Heat Index: 40°   Visibility: 10mi
Dew Point: 31°   Wind: 16mph
Humidity: 70%   Direction: 310°NW
Pressure: 29.55"   Gusts: NA
Location:  44.64°N, 97.92°W
Report Text: KHON 231955Z AUTO 31014KT 10SM BKN036 BKN042 OVC048 04/M01 A2955 RMK AO2 SLP017 T00441006
Loading
Personal Weather Stations






























Interactive Weather Map New forecast layout! Learn more

10-Day Weather Forecast

Advertisements
Track Severe Weather on mobile